CheckWX is a tool to help pilots better visualize weather data.  It is not intended as a substitute for an official pre-flight weather briefing.

14:44:10 UTC

KAEJ METAR
Central Colorado Regional Airport
Buena Vista, Colorado, USA
Current

29 mins ago

KAEJ 101415Z AUTO 32003KT 10SM CLR 15/M09 A3045 RMK AO2 T01541088
Observed
Jul-10 @ 14:15 UTC
Wind
  • 320° at 3 KTS
Visibility
10 SM
Flight Rules
VFR
Cloud Levels
  • Clear skies
Temperature
15°C / 59°F
Dewpoint
-9°C / 16°F
Humidity
18%
Altimeter
30.45" Hg
Pressure
1031.12 hPa
Previous

49 mins ago

KAEJ 101355Z AUTO 31005KT 10SM CLR 14/M09 A3045 RMK AO2 T01431087
Observed
Jul-10 @ 13:55 UTC
Wind
  • 310° at 5 KTS
Visibility
10 SM
Flight Rules
VFR
Cloud Levels
  • Clear skies
Temperature
14°C / 57°F
Dewpoint
-9°C / 16°F
Humidity
20%
Altimeter
30.45" Hg
Pressure
1031.12 hPa
Previous

1 hour ago

KAEJ 101335Z AUTO 32007KT 10SM CLR 13/M09 A3045 RMK AO2 T01321094
Observed
Jul-10 @ 13:35 UTC
Wind
  • 320° at 7 KTS
Visibility
10 SM
Flight Rules
VFR
Cloud Levels
  • Clear skies
Temperature
13°C / 55°F
Dewpoint
-9°C / 16°F
Humidity
21%
Altimeter
30.45" Hg
Pressure
1031.12 hPa